Detalii statie PROACUA CEFA [00001987]

Toti senzorii

Date Temperatura solului [C]Precipitatii [mm]Voltaj baterie [mV]Leaf Wetness [Min]HC Air temperature [C]HC Relative humidity [%]Punctul de roua [C]
medieminmaxsumaultimatimpmedieminmaxmediemediemin
2018-06-20 10:00:00 0 7324 25.44 24.79 26.48 0 0 0
2018-06-20 11:00:00 0 7304 27.14 26.1 28.2 0 0 0
2018-06-20 12:00:00 0 7314 28.92 28.01 29.94 0 0 0
2018-06-20 13:00:00 1.2 7314 30.08 29.56 30.83 0 0 0
2018-06-20 14:00:00 0 7294 30.8 29.94 31.76 0 0 0
2018-06-20 15:00:00 0 7138 31.11 30.56 32.14 0 0 0
2018-06-20 16:00:00 0 7274 31.58 30.74 32.42 0 0 0
2018-06-20 17:00:00 0 7274 31.81 31.31 32.52 0 0 0
2018-06-20 18:00:00 0 7274 31.21 30.81 31.94 0 0 0
2018-06-20 19:00:00 0 7274 30.22 29.47 30.87 0 0 0
2018-06-20 20:00:00 1 6834 27.69 25.83 29.49 0 0 0
2018-06-20 21:00:00 0.4 6826 24.82 23.96 25.65 0 0 0
2018-06-20 22:00:00 0 6834 23.02 22.33 23.64 0 0 0
2018-06-20 23:00:00 0 6834 22.15 21.7 22.57 0 0 0
2018-06-21 00:00:00 0 6826 21.51 21.07 21.69 0 0 0
2018-06-21 01:00:00 0 6826 20.23 19.62 20.81 0 0 0
2018-06-21 02:00:00 0 6826 19.74 19.55 19.96 0 0 0
2018-06-21 03:00:00 0 6816 19.73 19.3 19.93 0 0 0
2018-06-21 04:00:00 0.8 6826 19.8 19.53 20.03 0 0 0
2018-06-21 05:00:00 1.4 6816 19.06 18.9 19.32 0 0 0
2018-06-21 06:00:00 0 6914 19.25 18.9 20.16 0 0 0
2018-06-21 07:00:00 0 6982 21.68 20.43 22.91 0 0 0
2018-06-21 08:00:00 0 7332 23.7 22.63 24.68 0 0 0
2018-06-21 09:00:00 0 7324 25.46 24.71 25.97 33.33 8.5 0
2018-06-21 10:00:00 0 7324 26.91 25.82 28.09 0 0 0
2018-06-21 11:00:00 0 7304 29.09 28.24 30.2 0 0 0
2018-06-21 12:00:00 0 7314 30.52 29.74 30.98 0 0 0
2018-06-21 13:00:00 0 7314 31.45 30.78 31.94 16.66 5.1 0
2018-06-21 14:00:00 0 7304 31.74 31.17 32.67 0 0 0
2018-06-21 15:00:00 0 7294 30.69 29.82 32.05 66.62 0
2018-06-21 16:00:00 0 7294 28.33 26.43 29.84 70.78 22.3 20.1
2018-06-21 17:00:00 0 7128 25.94 25.61 26.31 74.95 20.9 19.7
2018-06-21 18:00:00 0 7294 25.97 25.76 26.35 73.99 20.8 20.4
2018-06-21 19:00:00 0 6884 25.33 25.06 25.67 93.1 23.9 20.8
2018-06-21 20:00:00 0.8 6834 24.56 24.08 25.01 100 24.5 24
2018-06-21 21:00:00 0 6826 23.45 22.88 24 100 23.4 22.8
2018-06-21 22:00:00 0 6826 22.22 21.77 22.78 100 22.1 21.7
2018-06-21 23:00:00 0 6826 21.36 21.04 21.64 100 21.3 21
2018-06-22 00:00:00 0 6826 20.6 20.2 20.91 0 0 0
2018-06-22 01:00:00 0 6826 19.98 19.82 20.23 0 0 0
2018-06-22 02:00:00 0 6826 20.07 19.84 20.21 0 0 0
2018-06-22 03:00:00 0 6806 20.42 20.14 20.51 0 0 0
2018-06-22 04:00:00 0 6806 20.55 20.47 20.66 5.88 0
2018-06-22 05:00:00 0 6806 19.95 19.48 20.39 16.66 3.2 0
2018-06-22 06:00:00 1.2 6806 20.76 20.46 21.13 33.33 6.9 0
2018-06-22 07:00:00 0 6834 21.06 20.43 21.24 41.66 0
2018-06-22 08:00:00 0 6844 18.62 17.43 20.37 0 0 0
2018-06-22 09:00:00 1 6874 17.73 17.23 18.18 32.19 5.6 0